الصفحة الرئيسية
METAR-TAF:

METAR-TAF

مطار :

Maré, نيو كاليدونيا

دائرة عرض: 21-28-53S, خط طول: 168-02-15E, ارتفاع: 42 متر

METAR: مفقودة

زمن: 14:02 (03:02 UTC)

توقعات

تاريخ ووقت الإصدار 10ساعات و 2 دقيقة قبل الساعة 17:00UTC
التوقعات صالحة من26 الساعة 18 UTC إلى 27 الساعة 18 UTC
ريح 2 عقدةمن اتجاهات متغيرة
الرؤية 10 كم أو أكثر
غيوم قليلة على ارتفاع 2000 قدم
غيوم متفرقة على ارتفاع 3000 قدم
غيوم مفككة على ارتفاع 5000 قدم
نظرية الاحتمالات 30% :
مؤقت
من 26 الساعة 18 UTC إلى 26 الساعة 22 UTC
غيوم مفككة على ارتفاع 1200 قدم
زخات من المطر
أصبح
من 26 الساعة 22 UTC إلى 26 الساعة 24 UTC
ريح 10 عقدة من الجنوب
مؤقت
من 27 الساعة 05 UTC إلى 27 الساعة 08 UTC
غيوم قليلة على ارتفاع 2500 قدم, مزن ركامية عمودية.
زخات من المطر

TAF: NWWR 261700Z 2618/2718 VRB02KT 9999 FEW020 SCT030 BKN050 PROB30 TEMPO 2618/2622 SHRA BKN012 BECMG 2622/2624 18010KT TEMPO 2705/2708 SHRA FEW025TCU

أرصاد الطقس والتوقعات من أكثر من 4000 مطار (تقارير الطقس للمطار METAR والتنبؤ بالطقس بالمطارTAF).

المحطات المتاحة هي النقط الصفراء والحمراء على الخريطة.

حرك المؤشر فوق النقطة لمعرفة اسم المحطة.

ثم انقر لمعرفة أرصاد وتوقعات الطقس.

لتغيير الخارطة: اضغط على الأزرار الخضراء مع رمز الصليب الأسود للتكبير. على الزر الأخضر مع شرطة للتصغير، أو على الأسهم الخضراء للخرائط المجاورة.


METAR-TAF: